createdAt,value
2023-02-15T00:00:11.467Z,98688.47
2023-02-15T00:02:39.799Z,98684.44
2023-02-15T00:05:08.089Z,98683.59
2023-02-15T00:07:35.927Z,98691.06
2023-02-15T00:10:04.231Z,98693.19
2023-02-15T00:12:31.881Z,98696.72
2023-02-15T00:14:59.592Z,98694.50
2023-02-15T00:17:30.183Z,98701.72
2023-02-15T00:19:57.972Z,98706.59
2023-02-15T00:22:26.549Z,98704.28
2023-02-15T00:24:54.312Z,98689.44
2023-02-15T00:27:22.026Z,98703.66
2023-02-15T00:29:49.864Z,98698.19
2023-02-15T00:32:17.590Z,98688.56
2023-02-15T00:34:45.363Z,98690.16
2023-02-15T00:37:13.054Z,98695.47
2023-02-15T00:39:40.849Z,98690.31
2023-02-15T00:42:08.773Z,98688.03
2023-02-15T00:44:36.541Z,98694.34
2023-02-15T00:47:04.301Z,98695.72
2023-02-15T00:49:32.098Z,98695.53
2023-02-15T00:51:59.774Z,98702.94
2023-02-15T00:54:27.516Z,98700.63
2023-02-15T00:56:55.231Z,98702.31
2023-02-15T00:59:23.071Z,98701.84
2023-02-15T01:01:50.852Z,98701.47
2023-02-15T01:04:20.779Z,98708.91
2023-02-15T01:06:48.528Z,98707.94
2023-02-15T01:09:16.556Z,98707.19
2023-02-15T01:11:44.221Z,98687.03
2023-02-15T01:14:12.178Z,98695.84
2023-02-15T01:16:40.141Z,98701.53
2023-02-15T01:19:07.991Z,98711.72
2023-02-15T01:21:35.806Z,98702.16
2023-02-15T01:24:04.393Z,98704.16
2023-02-15T01:26:32.079Z,98697.78
2023-02-15T01:29:00.159Z,98689.16
2023-02-15T01:31:28.055Z,98693.38
2023-02-15T01:33:55.921Z,98694.34
2023-02-15T01:36:23.656Z,98689.72
2023-02-15T01:38:53.237Z,98687.38
2023-02-15T01:41:21.058Z,98683.94
2023-02-15T01:44:13.133Z,98681.16
2023-02-15T01:46:47.136Z,98690.13
2023-02-15T01:49:16.386Z,98685.94
2023-02-15T01:51:46.177Z,98686.44
2023-02-15T01:54:27.188Z,98678.22
2023-02-15T01:56:56.074Z,98677.72
2023-02-15T01:59:24.191Z,98673.44
2023-02-15T02:01:55.728Z,98680.34
2023-02-15T02:04:44.749Z,98683.38
2023-02-15T02:07:13.535Z,98676.34
2023-02-15T02:09:41.228Z,98686.69
2023-02-15T02:12:08.971Z,98682.16
2023-02-15T02:14:37.243Z,98684.47
2023-02-15T02:17:08.199Z,98682.03
2023-02-15T02:20:01.009Z,98679.06
2023-02-15T02:22:59.755Z,98682.91
2023-02-15T02:25:37.829Z,98679.97
2023-02-15T02:28:17.906Z,98685.66
2023-02-15T02:30:45.671Z,98682.25
2023-02-15T02:33:31.463Z,98689.50
2023-02-15T02:36:09.032Z,98683.19
2023-02-15T02:38:46.612Z,98683.13
2023-02-15T02:41:24.683Z,98687.16
2023-02-15T02:44:07.627Z,98684.84
2023-02-15T02:46:52.712Z,98675.31
2023-02-15T02:49:33.569Z,98692.31
2023-02-15T02:52:03.201Z,98693.41
2023-02-15T02:54:31.228Z,98691.06
2023-02-15T02:57:00.489Z,98696.72
2023-02-15T02:59:35.886Z,98700.25
2023-02-15T03:02:13.814Z,98700.63
2023-02-15T03:04:44.475Z,98700.94
2023-02-15T03:07:15.656Z,98694.31
2023-02-15T03:09:45.407Z,98696.59
2023-02-15T03:12:20.622Z,98705.47
2023-02-15T03:15:02.072Z,98714.19
2023-02-15T03:17:32.016Z,98703.75
2023-02-15T03:20:04.266Z,98704.91
2023-02-15T03:22:39.425Z,98695.19
2023-02-15T03:25:11.366Z,98703.31
2023-02-15T03:27:42.427Z,98709.97
2023-02-15T03:30:11.296Z,98716.16
2023-02-15T03:32:39.096Z,98715.28
2023-02-15T03:35:07.634Z,98713.34
2023-02-15T03:37:55.768Z,98724.16
2023-02-15T03:40:48.298Z,98721.78
2023-02-15T03:43:37.691Z,98718.50
2023-02-15T03:46:13.301Z,98714.41
2023-02-15T03:48:46.791Z,98718.00
2023-02-15T03:51:36.273Z,98720.47
2023-02-15T03:54:35.567Z,98729.59
2023-02-15T03:57:21.868Z,98730.19
2023-02-15T04:00:08.093Z,98726.22
2023-02-15T04:03:04.621Z,98735.63
2023-02-15T04:05:32.333Z,98748.06
2023-02-15T04:07:59.989Z,98749.38
2023-02-15T04:10:46.385Z,98751.97
2023-02-15T04:13:14.084Z,98751.72
2023-02-15T04:16:00.884Z,98752.88
2023-02-15T04:18:47.352Z,98762.56
2023-02-15T04:21:33.707Z,98759.31
2023-02-15T04:24:20.101Z,98760.25
2023-02-15T04:26:48.833Z,98768.75
2023-02-15T04:29:16.592Z,98762.44
2023-02-15T04:31:44.534Z,98763.69
2023-02-15T04:34:12.351Z,98769.44
2023-02-15T04:36:40.151Z,98772.25
2023-02-15T04:39:08.337Z,98774.28
2023-02-15T04:41:36.053Z,98783.38
2023-02-15T04:44:05.143Z,98783.06
2023-02-15T04:46:32.838Z,98774.94
2023-02-15T04:49:00.671Z,98776.38
2023-02-15T04:51:28.430Z,98780.81
2023-02-15T04:53:57.011Z,98772.13
2023-02-15T04:56:24.726Z,98776.13
2023-02-15T04:58:52.512Z,98776.53
2023-02-15T05:01:20.273Z,98780.47
2023-02-15T05:03:48.027Z,98783.38
2023-02-15T05:06:15.766Z,98788.25
2023-02-15T05:08:43.487Z,98787.09
2023-02-15T05:11:11.537Z,98799.31
2023-02-15T05:13:39.261Z,98789.13
2023-02-15T05:16:06.948Z,98785.78
2023-02-15T05:18:34.683Z,98789.13
2023-02-15T05:21:02.393Z,98798.78
2023-02-15T05:23:30.135Z,98801.41
2023-02-15T05:26:16.780Z,98806.31
2023-02-15T05:28:44.509Z,98806.59
2023-02-15T05:31:17.196Z,98809.91
2023-02-15T05:33:45.248Z,98805.88
2023-02-15T05:36:12.939Z,98817.53
2023-02-15T05:38:40.821Z,98820.13
2023-02-15T05:41:08.871Z,98819.81
2023-02-15T05:43:36.654Z,98815.53
2023-02-15T05:46:04.870Z,98814.63
2023-02-15T05:48:32.825Z,98818.06
2023-02-15T05:51:01.068Z,98826.63
2023-02-15T05:53:29.484Z,98835.72
2023-02-15T05:56:00.646Z,98833.81
2023-02-15T05:58:36.505Z,98837.81
2023-02-15T06:01:14.573Z,98826.28
2023-02-15T06:03:42.481Z,98852.28
2023-02-15T06:06:10.203Z,98829.13
2023-02-15T06:08:38.282Z,98839.56
2023-02-15T06:11:06.141Z,98835.81
2023-02-15T06:13:36.478Z,98839.22
2023-02-15T06:16:06.778Z,98838.00
2023-02-15T06:18:34.903Z,98836.69
2023-02-15T06:21:02.691Z,98835.59
2023-02-15T06:23:30.342Z,98830.16
2023-02-15T06:25:58.132Z,98838.59
2023-02-15T06:28:26.592Z,98827.31
2023-02-15T06:30:54.488Z,98834.25
2023-02-15T06:33:22.487Z,98835.16
2023-02-15T06:35:51.637Z,98834.91
2023-02-15T06:38:19.324Z,98829.41
2023-02-15T06:40:48.686Z,98827.56
2023-02-15T06:43:17.452Z,98823.88
2023-02-15T06:45:46.265Z,98833.81
2023-02-15T06:48:13.991Z,98819.09
2023-02-15T06:50:41.816Z,98810.59
2023-02-15T06:53:09.571Z,98817.31
2023-02-15T06:55:37.309Z,98819.59
2023-02-15T06:58:04.985Z,98815.13
2023-02-15T07:00:32.856Z,98824.72
2023-02-15T07:03:00.834Z,98808.50
2023-02-15T07:05:32.232Z,98816.25
2023-02-15T07:08:00.704Z,98821.19
2023-02-15T07:10:30.163Z,98814.56
2023-02-15T07:12:57.923Z,98811.03
2023-02-15T07:15:25.717Z,98814.25
2023-02-15T07:17:55.193Z,98814.13
2023-02-15T07:20:24.105Z,98811.50
2023-02-15T07:22:51.887Z,98819.22
2023-02-15T07:25:19.677Z,98817.34
2023-02-15T07:27:47.364Z,98825.53
2023-02-15T07:30:16.637Z,98814.38
2023-02-15T07:33:05.311Z,98820.00
2023-02-15T07:35:34.017Z,98817.72
2023-02-15T07:38:02.019Z,98813.25
2023-02-15T07:40:29.764Z,98820.78
2023-02-15T07:42:58.730Z,98817.47
2023-02-15T07:45:26.479Z,98804.16
2023-02-15T07:47:54.200Z,98803.19
2023-02-15T07:50:23.903Z,98804.59
2023-02-15T07:52:53.092Z,98804.31
2023-02-15T07:55:20.851Z,98802.41
2023-02-15T07:57:49.823Z,98808.47
2023-02-15T08:00:21.142Z,98800.88
2023-02-15T08:02:50.116Z,98790.38
2023-02-15T08:05:19.289Z,98787.41
2023-02-15T08:07:48.528Z,98783.97
2023-02-15T08:10:36.326Z,98789.25
2023-02-15T08:13:04.059Z,98794.69
2023-02-15T08:15:32.550Z,98787.03
2023-02-15T08:18:00.355Z,98785.25
2023-02-15T08:20:28.720Z,98783.41
2023-02-15T08:22:56.488Z,98769.75
2023-02-15T08:25:24.735Z,98768.47
2023-02-15T08:27:52.502Z,98780.03
2023-02-15T08:30:20.801Z,98778.41
2023-02-15T08:32:48.699Z,98771.16
2023-02-15T08:35:16.448Z,98773.78
2023-02-15T08:37:44.175Z,98773.88
2023-02-15T08:40:14.319Z,98782.25
2023-02-15T08:42:43.065Z,98787.03
2023-02-15T08:45:10.925Z,98785.44
2023-02-15T08:47:38.731Z,98785.50
2023-02-15T08:50:07.982Z,98796.47
2023-02-15T08:52:35.661Z,98787.50
2023-02-15T08:55:03.476Z,98789.56
2023-02-15T08:57:31.143Z,98797.44
2023-02-15T08:59:58.896Z,98785.16
2023-02-15T09:02:26.708Z,98796.56
2023-02-15T09:04:54.960Z,98788.97
2023-02-15T09:07:22.814Z,98794.06
2023-02-15T09:09:50.606Z,98792.94
2023-02-15T09:12:18.324Z,98793.13
2023-02-15T09:14:46.048Z,98789.66
2023-02-15T09:17:16.037Z,98790.66
2023-02-15T09:19:43.880Z,98791.44
2023-02-15T09:22:11.788Z,98785.13
2023-02-15T09:24:39.564Z,98779.59
2023-02-15T09:27:08.157Z,98773.19
2023-02-15T09:29:37.571Z,98765.94
2023-02-15T09:32:05.387Z,98771.25
2023-02-15T09:34:35.047Z,98763.94
2023-02-15T09:37:03.823Z,98767.03
2023-02-15T09:39:31.492Z,98764.13
2023-02-15T09:42:11.299Z,98771.06
2023-02-15T09:45:04.866Z,98766.50
2023-02-15T09:48:02.608Z,98755.72
2023-02-15T09:50:56.388Z,98749.91
2023-02-15T09:53:49.050Z,98760.47
2023-02-15T09:56:31.750Z,98759.03
2023-02-15T09:59:11.746Z,98755.22
2023-02-15T10:02:01.341Z,98753.91
2023-02-15T10:04:41.671Z,98753.84
2023-02-15T10:07:56.181Z,98762.75
2023-02-15T10:10:43.459Z,98755.31
2023-02-15T10:13:44.624Z,98756.00
2023-02-15T10:16:37.168Z,98744.91
2023-02-15T10:19:14.757Z,98739.44
2023-02-15T10:21:58.992Z,98731.03
2023-02-15T10:24:30.875Z,98732.94
2023-02-15T10:27:04.062Z,98737.06
2023-02-15T10:29:39.366Z,98725.25
2023-02-15T10:32:10.182Z,98722.50
2023-02-15T10:34:40.450Z,98727.00
2023-02-15T10:37:14.072Z,98708.84
2023-02-15T10:39:41.758Z,98709.97
2023-02-15T10:42:34.075Z,98713.75
2023-02-15T10:45:26.024Z,98709.25
2023-02-15T10:48:00.296Z,98704.59
2023-02-15T10:50:40.525Z,98696.31
2023-02-15T10:53:12.248Z,98686.69
2023-02-15T10:56:07.338Z,98685.34
2023-02-15T10:59:02.558Z,98698.19
2023-02-15T11:01:50.042Z,98686.19
2023-02-15T11:04:17.798Z,98696.88
2023-02-15T11:06:52.294Z,98680.69
2023-02-15T11:09:21.730Z,98677.59
2023-02-15T11:11:51.415Z,98677.44
2023-02-15T11:14:23.068Z,98674.72
2023-02-15T11:16:52.898Z,98685.41
2023-02-15T11:19:21.740Z,98686.66
2023-02-15T11:21:51.364Z,98686.59
2023-02-15T11:24:21.128Z,98677.13
2023-02-15T11:26:56.071Z,98666.28
2023-02-15T11:29:31.800Z,98660.16
2023-02-15T11:32:20.436Z,98655.88
2023-02-15T11:34:58.798Z,98660.28
2023-02-15T11:37:37.927Z,98669.19
2023-02-15T11:40:19.375Z,98650.41
2023-02-15T11:42:50.863Z,98652.41
2023-02-15T11:45:31.472Z,98649.88
2023-02-15T11:47:59.686Z,98658.00
2023-02-15T11:50:32.319Z,98643.78
2023-02-15T11:53:05.409Z,98642.50
2023-02-15T11:55:35.836Z,98631.63
2023-02-15T11:58:40.727Z,98628.38
2023-02-15T12:01:33.605Z,98616.38
2023-02-15T12:04:25.159Z,98624.38
2023-02-15T12:07:04.119Z,98618.78
2023-02-15T12:09:38.766Z,98608.66
2023-02-15T12:12:24.997Z,98616.81
2023-02-15T12:14:57.025Z,98607.84
2023-02-15T12:17:29.385Z,98607.84
2023-02-15T12:19:58.744Z,98606.97
2023-02-15T12:22:27.296Z,98601.75
2023-02-15T12:25:00.573Z,98600.25
2023-02-15T12:27:32.072Z,98600.16
2023-02-15T12:30:03.333Z,98579.72
2023-02-15T12:32:34.339Z,98586.78
2023-02-15T12:35:10.806Z,98582.31
2023-02-15T12:37:38.542Z,98571.25
2023-02-15T12:40:31.402Z,98569.28
2023-02-15T12:42:59.462Z,98563.59
2023-02-15T12:45:31.717Z,98560.88
2023-02-15T12:48:22.456Z,98561.00
2023-02-15T12:50:58.264Z,98562.69
2023-02-15T12:53:34.039Z,98549.09
2023-02-15T12:56:07.362Z,98552.28
2023-02-15T12:58:36.270Z,98549.66
2023-02-15T13:01:16.977Z,98547.47
2023-02-15T13:03:56.621Z,98542.06
2023-02-15T13:06:26.057Z,98537.31
2023-02-15T13:08:59.391Z,98539.13
2023-02-15T13:11:31.318Z,98543.38
2023-02-15T13:14:00.456Z,98537.94
2023-02-15T13:16:35.111Z,98545.63
2023-02-15T13:19:57.917Z,98538.59
2023-02-15T13:22:33.712Z,98539.25
2023-02-15T13:25:05.144Z,98532.34
2023-02-15T13:27:37.719Z,98546.59
2023-02-15T13:30:19.676Z,98541.34
2023-02-15T13:32:47.508Z,98534.28
2023-02-15T13:35:16.842Z,98532.84
2023-02-15T13:37:47.408Z,98542.72
2023-02-15T13:40:34.433Z,98534.59
2023-02-15T13:43:21.921Z,98530.41
2023-02-15T13:46:20.812Z,98533.44
2023-02-15T13:49:13.552Z,98535.97
2023-02-15T13:51:57.053Z,98528.25
2023-02-15T13:54:33.822Z,98533.13
2023-02-15T13:57:36.033Z,98527.84
2023-02-15T14:00:31.833Z,98536.97
2023-02-15T14:03:18.762Z,98539.44
2023-02-15T14:05:56.683Z,98542.19
2023-02-15T14:08:46.763Z,98533.66
2023-02-15T14:11:48.508Z,98545.56
2023-02-15T14:14:31.620Z,98539.91
2023-02-15T14:17:34.877Z,98551.59
2023-02-15T14:20:24.264Z,98554.63
2023-02-15T14:23:02.192Z,98552.19
2023-02-15T14:25:32.956Z,98563.94
2023-02-15T14:28:16.103Z,98559.69
2023-02-15T14:30:45.994Z,98566.13
2023-02-15T14:33:37.067Z,98562.78
2023-02-15T14:36:07.624Z,98564.78
2023-02-15T14:38:53.722Z,98561.47
2023-02-15T14:41:27.352Z,98561.47
2023-02-15T14:44:16.677Z,98568.09
2023-02-15T14:46:48.480Z,98565.09
2023-02-15T14:49:27.302Z,98576.06
2023-02-15T14:51:57.628Z,98571.53
2023-02-15T14:54:31.266Z,98567.28
2023-02-15T14:57:01.735Z,98564.66
2023-02-15T14:59:59.145Z,98565.25
2023-02-15T15:02:49.658Z,98565.97
2023-02-15T15:05:36.175Z,98569.03
2023-02-15T15:08:05.616Z,98578.81
2023-02-15T15:10:34.728Z,98566.13
2023-02-15T15:13:31.089Z,98565.56
2023-02-15T15:16:32.670Z,98554.72
2023-02-15T15:19:03.805Z,98569.53
2023-02-15T15:21:50.213Z,98573.50
2023-02-15T15:24:39.690Z,98569.78
2023-02-15T15:27:46.423Z,98573.75
2023-02-15T15:30:14.188Z,98569.78
2023-02-15T15:32:57.742Z,98576.50
2023-02-15T15:35:44.193Z,98573.41
2023-02-15T15:38:49.604Z,98577.50
2023-02-15T15:41:43.144Z,98583.97
2023-02-15T15:44:13.838Z,98588.16
2023-02-15T15:46:50.529Z,98583.06
2023-02-15T15:49:22.237Z,98580.81
2023-02-15T15:51:50.204Z,98586.34
2023-02-15T15:54:25.679Z,98586.50
2023-02-15T15:57:04.956Z,98590.66
2023-02-15T15:59:33.760Z,98582.81
2023-02-15T16:02:08.211Z,98590.41
2023-02-15T16:04:36.132Z,98583.59
2023-02-15T16:07:18.924Z,98591.25
2023-02-15T16:10:06.852Z,98592.91
2023-02-15T16:12:35.905Z,98587.81
2023-02-15T16:15:31.447Z,98589.16
2023-02-15T16:17:59.324Z,98600.22
2023-02-15T16:20:33.205Z,98582.38
2023-02-15T16:23:16.956Z,98592.44
2023-02-15T16:26:06.280Z,98595.38
2023-02-15T16:28:35.257Z,98596.31
2023-02-15T16:31:29.248Z,98599.59
2023-02-15T16:33:57.047Z,98606.63
2023-02-15T16:36:27.121Z,98607.00
2023-02-15T16:38:57.710Z,98610.34
2023-02-15T16:41:28.181Z,98611.53
2023-02-15T16:43:58.157Z,98605.75
2023-02-15T16:46:29.686Z,98610.28
2023-02-15T16:48:59.589Z,98608.38
2023-02-15T16:51:29.915Z,98617.69
2023-02-15T16:53:58.514Z,98610.16
2023-02-15T16:56:31.406Z,98615.63
2023-02-15T16:58:59.573Z,98611.94
2023-02-15T17:01:29.294Z,98616.72
2023-02-15T17:04:22.310Z,98616.41
2023-02-15T17:07:07.396Z,98611.91
2023-02-15T17:09:35.213Z,98616.63
2023-02-15T17:12:03.331Z,98601.88
2023-02-15T17:14:32.047Z,98617.94
2023-02-15T17:17:01.894Z,98615.25
2023-02-15T17:19:32.112Z,98611.97
2023-02-15T17:22:04.744Z,98607.38
2023-02-15T17:24:32.455Z,98619.47
2023-02-15T17:27:03.465Z,98622.09
2023-02-15T17:29:35.758Z,98622.34
2023-02-15T17:32:04.138Z,98616.47
2023-02-15T17:34:45.644Z,98621.84
2023-02-15T17:37:14.744Z,98627.91
2023-02-15T17:39:42.709Z,98628.28
2023-02-15T17:42:10.523Z,98632.03
2023-02-15T17:44:38.234Z,98642.53
2023-02-15T17:47:06.217Z,98630.66
2023-02-15T17:49:38.123Z,98628.13
2023-02-15T17:52:06.105Z,98631.78
2023-02-15T17:54:52.396Z,98639.53
2023-02-15T17:57:20.096Z,98628.25
2023-02-15T18:00:06.299Z,98638.00
2023-02-15T18:02:58.804Z,98643.34
2023-02-15T18:05:45.331Z,98648.94
2023-02-15T18:08:35.664Z,98643.56
2023-02-15T18:11:22.593Z,98648.56
2023-02-15T18:13:50.388Z,98659.31
2023-02-15T18:16:23.887Z,98658.97
2023-02-15T18:18:51.687Z,98657.41
2023-02-15T18:21:20.282Z,98658.22
2023-02-15T18:23:48.086Z,98655.13
2023-02-15T18:26:23.277Z,98658.66
2023-02-15T18:28:52.039Z,98669.50
2023-02-15T18:31:19.800Z,98660.69
2023-02-15T18:33:52.610Z,98663.22
2023-02-15T18:36:27.989Z,98669.88
2023-02-15T18:38:56.264Z,98671.06
2023-02-15T18:41:24.087Z,98664.94
2023-02-15T18:43:53.820Z,98661.66
2023-02-15T18:46:22.007Z,98672.75
2023-02-15T18:48:49.892Z,98676.41
2023-02-15T18:51:20.948Z,98674.34
2023-02-15T18:53:52.724Z,98670.56
2023-02-15T18:56:22.064Z,98675.50
2023-02-15T18:58:49.954Z,98678.16
2023-02-15T19:01:19.455Z,98678.94
2023-02-15T19:03:48.188Z,98679.66
2023-02-15T19:06:17.871Z,98680.44
2023-02-15T19:08:47.176Z,98681.69
2023-02-15T19:11:16.200Z,98684.59
2023-02-15T19:13:43.954Z,98676.19
2023-02-15T19:16:32.321Z,98676.75
2023-02-15T19:19:00.621Z,98680.06
2023-02-15T19:21:29.882Z,98676.59
2023-02-15T19:24:03.915Z,98672.69
2023-02-15T19:26:44.524Z,98674.13
2023-02-15T19:29:14.249Z,98671.56
2023-02-15T19:31:42.519Z,98678.19
2023-02-15T19:34:15.527Z,98672.66
2023-02-15T19:36:47.659Z,98678.75
2023-02-15T19:39:30.279Z,98671.53
2023-02-15T19:41:58.166Z,98681.81
2023-02-15T19:44:26.001Z,98686.25
2023-02-15T19:46:54.297Z,98679.81
2023-02-15T19:49:22.059Z,98688.09
2023-02-15T19:51:49.880Z,98682.97
2023-02-15T19:54:31.741Z,98685.00
2023-02-15T19:56:59.639Z,98681.16
2023-02-15T19:59:32.365Z,98684.94
2023-02-15T20:02:00.258Z,98679.94
2023-02-15T20:04:28.271Z,98686.97
2023-02-15T20:06:57.285Z,98689.03
2023-02-15T20:09:35.599Z,98687.03
2023-02-15T20:12:03.756Z,98695.28
2023-02-15T20:14:31.576Z,98698.16
2023-02-15T20:16:59.321Z,98690.06
2023-02-15T20:19:27.121Z,98700.91
2023-02-15T20:21:55.055Z,98692.03
2023-02-15T20:24:30.934Z,98693.28
2023-02-15T20:26:59.325Z,98694.00
2023-02-15T20:29:26.980Z,98700.00
2023-02-15T20:31:55.630Z,98696.78
2023-02-15T20:34:23.556Z,98702.06
2023-02-15T20:36:51.377Z,98707.81
2023-02-15T20:39:20.645Z,98706.38
2023-02-15T20:41:48.490Z,98710.66
2023-02-15T20:44:26.101Z,98700.34
2023-02-15T20:46:55.423Z,98707.44
2023-02-15T20:49:26.564Z,98702.09
2023-02-15T20:51:54.843Z,98709.72
2023-02-15T20:54:23.918Z,98703.09
2023-02-15T20:56:52.031Z,98703.00
2023-02-15T20:59:30.745Z,98695.94
2023-02-15T21:02:15.515Z,98700.44
2023-02-15T21:04:43.342Z,98700.69
2023-02-15T21:07:17.812Z,98696.72
2023-02-15T21:09:45.777Z,98694.59
2023-02-15T21:12:17.769Z,98700.88
2023-02-15T21:14:45.989Z,98693.78
2023-02-15T21:17:15.084Z,98698.44
2023-02-15T21:19:42.866Z,98695.22
2023-02-15T21:22:14.155Z,98697.75
2023-02-15T21:24:46.921Z,98694.00
2023-02-15T21:27:14.740Z,98686.25
2023-02-15T21:29:42.400Z,98693.47
2023-02-15T21:32:10.657Z,98694.91
2023-02-15T21:34:39.994Z,98691.00
2023-02-15T21:37:28.416Z,98685.13
2023-02-15T21:39:56.270Z,98687.50
2023-02-15T21:42:42.464Z,98683.63
2023-02-15T21:45:35.729Z,98678.75
2023-02-15T21:48:03.721Z,98681.50
2023-02-15T21:50:50.313Z,98688.16
2023-02-15T21:53:24.571Z,98687.38
2023-02-15T21:55:57.220Z,98686.94
2023-02-15T21:58:27.202Z,98682.56
2023-02-15T22:00:55.617Z,98684.31
2023-02-15T22:03:24.285Z,98683.25
2023-02-15T22:05:52.050Z,98687.03
2023-02-15T22:08:20.054Z,98679.94
2023-02-15T22:10:48.149Z,98683.28
2023-02-15T22:13:18.984Z,98687.16
2023-02-15T22:15:47.318Z,98682.94
2023-02-15T22:18:24.263Z,98690.09
2023-02-15T22:20:52.607Z,98685.22
2023-02-15T22:23:20.615Z,98694.28
2023-02-15T22:25:56.851Z,98692.28
2023-02-15T22:28:31.555Z,98690.00
2023-02-15T22:30:59.375Z,98702.34
2023-02-15T22:33:29.098Z,98698.34
2023-02-15T22:35:56.884Z,98700.97
2023-02-15T22:38:24.681Z,98701.09
2023-02-15T22:40:53.606Z,98702.41
2023-02-15T22:43:38.481Z,98703.78
2023-02-15T22:46:15.230Z,98703.72
2023-02-15T22:48:44.301Z,98711.13
2023-02-15T22:51:15.731Z,98707.38
2023-02-15T22:53:43.427Z,98714.91
2023-02-15T22:56:22.318Z,98712.22
2023-02-15T22:58:50.553Z,98707.94
2023-02-15T23:01:26.895Z,98711.03
2023-02-15T23:03:54.685Z,98713.28
2023-02-15T23:06:22.404Z,98698.16
2023-02-15T23:08:50.111Z,98702.19
2023-02-15T23:11:18.437Z,98698.06
2023-02-15T23:13:47.638Z,98697.13
2023-02-15T23:16:16.413Z,98696.63
2023-02-15T23:18:45.689Z,98694.91
2023-02-15T23:21:32.473Z,98689.56
2023-02-15T23:24:22.548Z,98688.03
2023-02-15T23:26:50.436Z,98681.91
2023-02-15T23:29:20.143Z,98687.41
2023-02-15T23:31:50.003Z,98680.94
2023-02-15T23:34:22.855Z,98684.38
2023-02-15T23:36:50.694Z,98678.03
2023-02-15T23:39:40.941Z,98685.84
2023-02-15T23:42:19.509Z,98680.91
2023-02-15T23:44:47.396Z,98685.88
2023-02-15T23:47:46.031Z,98683.63
2023-02-15T23:50:24.821Z,98683.84
2023-02-15T23:52:52.897Z,98681.84
2023-02-15T23:55:20.721Z,98681.84
2023-02-15T23:57:48.560Z,98687.03
